Check out our new BloomSky Weather System.

Active alerts


No alerts


Thunder radar  blitzortung!


Rain radar more information rain snow radar


Visit our other weather sites:

Template documentation
and downloads

And another site



Weather Underground History page Text

Daily Summary for February 23, 2017 Units:  English    Metric   Both
« Previous Day
Next Day »
Daily Weekly Monthly Yearly Custom
  High: Low: Average:
Temperature: 84.2 °F 51.3 °F 67.8 °F
Dew Point: 64.9 °F 48.9 °F 57.6 °F
Humidity: 98 % 41 % 73 %
Wind Speed: 15.0 mph 0.0 mph 3.9 mph
Wind Gust: 17.0 mph - -
Wind:- - SE
Pressure: 29.78 in 29.62 in -
Precipitation: 0.00 in    
Historical Graphs
 
 
Tabular Data for February 23, 2017
Time Temperature Dew Point Pressure Wind Wind Speed Wind Gust Humidity Rainfall Rate (Hourly)
00:03 61.2 °F 52.5 °F 29.76 in Calm   1.0 mph 73 % 0.00 in
00:08 61.0 °F 52.7 °F 29.76 in Calm   1.0 mph 74 % 0.00 in
00:13 61.0 °F 52.7 °F 29.76 in Calm   1.0 mph 74 % 0.00 in
00:18 60.8 °F 52.5 °F 29.76 in Calm   1.0 mph 74 % 0.00 in
00:23 60.6 °F 52.3 °F 29.75 in Calm   1.0 mph 74 % 0.00 in
00:28 60.6 °F 52.3 °F 29.75 in ESE 1.0 mph 1.0 mph 74 % 0.00 in
00:33 60.4 °F 52.2 °F 29.75 in Calm   1.0 mph 74 % 0.00 in
00:38 60.3 °F 52.0 °F 29.75 in Calm   1.0 mph 74 % 0.00 in
00:43 59.9 °F 52.0 °F 29.75 in Calm   1.0 mph 75 % 0.00 in
00:49 59.7 °F 51.4 °F 29.75 in SE 1.0 mph 1.0 mph 74 % 0.00 in
00:54 59.7 °F 51.4 °F 29.75 in Calm   1.0 mph 74 % 0.00 in
00:59 59.5 °F 51.3 °F 29.75 in Calm   1.0 mph 74 % 0.00 in
01:04 59.2 °F 50.9 °F 29.75 in Calm   1.0 mph 74 % 0.00 in
01:09 58.8 °F 50.9 °F 29.75 in Calm   1.0 mph 75 % 0.00 in
01:14 58.5 °F 50.9 °F 29.75 in Calm   1.0 mph 76 % 0.00 in
01:19 57.9 °F 50.0 °F 29.75 in Calm     75 % 0.00 in
01:24 57.4 °F 49.8 °F 29.75 in Calm     76 % 0.00 in
01:29 56.8 °F 50.0 °F 29.74 in Calm     78 % 0.00 in
01:34 56.5 °F 50.0 °F 29.74 in Calm     79 % 0.00 in
01:39 56.5 °F 50.4 °F 29.74 in Calm     80 % 0.00 in
01:44 56.1 °F 50.0 °F 29.74 in Calm     80 % 0.00 in
01:49 55.9 °F 50.2 °F 29.74 in Calm     81 % 0.00 in
01:54 55.9 °F 50.2 °F 29.74 in Calm     81 % 0.00 in
01:59 55.8 °F 50.0 °F 29.74 in Calm     81 % 0.00 in
02:04 55.6 °F 50.2 °F 29.74 in Calm     82 % 0.00 in
02:09 55.2 °F 49.8 °F 29.74 in Calm     82 % 0.00 in
02:14 55.0 °F 50.0 °F 29.74 in Calm     83 % 0.00 in
02:19 55.0 °F 50.4 °F 29.74 in Calm     84 % 0.00 in
02:24 54.9 °F 49.8 °F 29.73 in Calm     83 % 0.00 in
02:29 54.3 °F 49.6 °F 29.73 in Calm     84 % 0.00 in
02:34 54.0 °F 49.3 °F 29.73 in Calm     84 % 0.00 in
02:39 54.0 °F 49.8 °F 29.73 in Calm     86 % 0.00 in
02:44 54.0 °F 49.8 °F 29.73 in Calm     86 % 0.00 in
02:49 53.8 °F 50.0 °F 29.73 in Calm     87 % 0.00 in
02:55 54.0 °F 50.2 °F 29.73 in Calm     87 % 0.00 in
03:00 53.8 °F 50.0 °F 29.73 in Calm     87 % 0.00 in
03:05 53.4 °F 49.6 °F 29.73 in Calm     87 % 0.00 in
03:10 53.1 °F 49.3 °F 29.73 in Calm     87 % 0.00 in
03:15 53.1 °F 49.6 °F 29.73 in Calm     88 % 0.00 in
03:20 53.1 °F 49.8 °F 29.73 in Calm     89 % 0.00 in
03:25 53.2 °F 50.0 °F 29.73 in Calm     89 % 0.00 in
03:30 53.1 °F 49.6 °F 29.73 in Calm     88 % 0.00 in
03:35 52.9 °F 49.6 °F 29.73 in Calm     89 % 0.00 in
03:40 52.3 °F 48.9 °F 29.73 in Calm     88 % 0.00 in
03:45 52.2 °F 49.3 °F 29.73 in Calm     90 % 0.00 in
03:50 52.3 °F 49.5 °F 29.73 in Calm     90 % 0.00 in
03:55 52.2 °F 49.3 °F 29.73 in Calm     90 % 0.00 in
04:00 52.2 °F 49.6 °F 29.73 in Calm     91 % 0.00 in
04:05 52.2 °F 49.6 °F 29.73 in Calm     91 % 0.00 in
04:10 52.2 °F 49.6 °F 29.73 in Calm     91 % 0.00 in
04:15 52.2 °F 49.6 °F 29.73 in Calm     91 % 0.00 in
04:20 52.2 °F 49.6 °F 29.73 in Calm     91 % 0.00 in
04:25 51.8 °F 49.3 °F 29.73 in Calm     91 % 0.00 in
04:26 51.8 °F 49.3 °F 29.73 in Calm     91 % 0.00 in
04:31 51.6 °F 49.1 °F 29.73 in Calm     91 % 0.00 in
04:33 51.4 °F 48.9 °F 29.73 in Calm     91 % 0.00 in
04:38 51.6 °F 49.5 °F 29.73 in Calm     92 % 0.00 in
04:43 51.8 °F 49.6 °F 29.73 in Calm   1.0 mph 92 % 0.00 in
04:48 52.0 °F 49.6 °F 29.73 in Calm   1.0 mph 92 % 0.00 in
04:53 51.6 °F 49.1 °F 29.73 in Calm   1.0 mph 91 % 0.00 in
04:58 51.4 °F 49.3 °F 29.73 in Calm     92 % 0.00 in
05:03 51.8 °F 49.8 °F 29.73 in Calm     93 % 0.00 in
05:08 51.8 °F 49.8 °F 29.73 in Calm     93 % 0.00 in
05:13 51.8 °F 49.6 °F 29.73 in Calm     92 % 0.00 in
05:18 51.8 °F 49.8 °F 29.74 in Calm     93 % 0.00 in
05:23 51.6 °F 49.6 °F 29.73 in Calm     93 % 0.00 in
05:28 51.6 °F 49.6 °F 29.73 in Calm     93 % 0.00 in
05:33 51.4 °F 49.5 °F 29.73 in Calm     93 % 0.00 in
05:38 51.4 °F 49.5 °F 29.74 in Calm     93 % 0.00 in
05:44 51.4 °F 49.5 °F 29.73 in Calm     93 % 0.00 in
05:49 51.6 °F 50.0 °F 29.74 in Calm   1.0 mph 94 % 0.00 in
05:54 51.6 °F 50.0 °F 29.74 in Calm   1.0 mph 94 % 0.00 in
05:59 51.6 °F 50.0 °F 29.74 in Calm   1.0 mph 94 % 0.00 in
06:04 51.4 °F 49.8 °F 29.74 in Calm     94 % 0.00 in
06:09 51.3 °F 49.6 °F 29.74 in Calm     94 % 0.00 in
06:14 51.6 °F 50.2 °F 29.74 in Calm   1.0 mph 95 % 0.00 in
06:19 51.6 °F 50.2 °F 29.74 in Calm   1.0 mph 95 % 0.00 in
06:24 51.6 °F 50.2 °F 29.75 in Calm   1.0 mph 95 % 0.00 in
06:29 51.6 °F 50.2 °F 29.74 in Calm   1.0 mph 95 % 0.00 in
06:34 51.6 °F 50.2 °F 29.75 in Calm   1.0 mph 95 % 0.00 in
06:39 51.8 °F 50.4 °F 29.75 in Calm   1.0 mph 95 % 0.00 in
06:44 52.0 °F 50.5 °F 29.75 in Calm   1.0 mph 95 % 0.00 in
06:49 52.2 °F 51.1 °F 29.75 in Calm   1.0 mph 96 % 0.00 in
06:54 52.2 °F 50.7 °F 29.75 in Calm   1.0 mph 95 % 0.00 in
06:59 52.2 °F 50.7 °F 29.75 in Calm   1.0 mph 95 % 0.00 in
07:04 52.2 °F 50.7 °F 29.75 in Calm   1.0 mph 95 % 0.00 in
07:09 52.3 °F 51.3 °F 29.75 in Calm   1.0 mph 96 % 0.00 in
07:10 52.3 °F 51.3 °F 29.75 in Calm   1.0 mph 96 % 0.00 in
07:15 52.5 °F 51.4 °F 29.75 in Calm   1.0 mph 96 % 0.00 in
07:20 52.9 °F 51.8 °F 29.75 in Calm   1.0 mph 96 % 0.00 in
07:25 53.2 °F 52.2 °F 29.76 in Calm   1.0 mph 96 % 0.00 in
07:30 53.8 °F 52.9 °F 29.76 in Calm   1.0 mph 97 % 0.00 in
07:35 54.1 °F 53.1 °F 29.76 in Calm   1.0 mph 96 % 0.00 in
07:40 54.7 °F 53.6 °F 29.76 in Calm   1.0 mph 96 % 0.00 in
07:45 55.2 °F 54.3 °F 29.76 in Calm   1.0 mph 97 % 0.00 in
07:50 56.1 °F 55.2 °F 29.76 in Calm   1.0 mph 97 % 0.00 in
07:55 57.6 °F 57.0 °F 29.76 in Calm   2.0 mph 98 % 0.00 in
08:00 58.8 °F 57.9 °F 29.76 in SE 1.0 mph 2.0 mph 97 % 0.00 in
08:05 59.9 °F 59.0 °F 29.76 in ESE 4.0 mph 4.0 mph 97 % 0.00 in
08:11 61.0 °F 59.9 °F 29.76 in SE 1.0 mph 4.0 mph 96 % 0.00 in
08:16 62.1 °F 60.6 °F 29.77 in SSE 2.0 mph 4.0 mph 95 % 0.00 in
08:21 63.0 °F 61.2 °F 29.77 in SSE 2.0 mph 7.0 mph 94 % 0.00 in
08:26 63.9 °F 61.9 °F 29.77 in South 2.0 mph 7.0 mph 93 % 0.00 in
08:31 64.8 °F 62.4 °F 29.77 in South 5.0 mph 7.0 mph 92 % 0.00 in
08:36 65.1 °F 62.4 °F 29.77 in SE 4.0 mph 6.0 mph 91 % 0.00 in
08:41 65.7 °F 63.0 °F 29.77 in SSE 1.0 mph 7.0 mph 91 % 0.00 in
08:46 66.4 °F 63.3 °F 29.77 in SSW 5.0 mph 7.0 mph 90 % 0.00 in
08:51 66.7 °F 63.3 °F 29.77 in SE 4.0 mph 8.0 mph 89 % 0.00 in
08:56 67.3 °F 63.9 °F 29.77 in SSE 3.0 mph 8.0 mph 89 % 0.00 in
09:01 67.8 °F 63.9 °F 29.77 in SE 2.0 mph 8.0 mph 87 % 0.00 in
09:06 68.5 °F 64.2 °F 29.78 in SSW 6.0 mph 8.0 mph 86 % 0.00 in
09:11 69.3 °F 64.9 °F 29.77 in ESE 6.0 mph 8.0 mph 86 % 0.00 in
09:16 69.6 °F 64.6 °F 29.77 in SSE 5.0 mph 10.0 mph 84 % 0.00 in
09:21 70.2 °F 64.8 °F 29.77 in SSE 4.0 mph 10.0 mph 83 % 0.00 in
09:26 70.9 °F 64.4 °F 29.78 in SSE 3.0 mph 10.0 mph 80 % 0.00 in
09:31 71.2 °F 64.4 °F 29.78 in South 3.0 mph 9.0 mph 79 % 0.00 in
09:36 71.6 °F 64.0 °F 29.78 in SSW 10.0 mph 10.0 mph 77 % 0.00 in
09:41 71.8 °F 63.9 °F 29.78 in South 5.0 mph 13.0 mph 76 % 0.00 in
09:46 72.1 °F 63.3 °F 29.77 in ESE 9.0 mph 13.0 mph 74 % 0.00 in
09:51 72.3 °F 62.8 °F 29.77 in ESE 6.0 mph 13.0 mph 72 % 0.00 in
09:57 72.9 °F 63.3 °F 29.78 in South 7.0 mph 12.0 mph 72 % 0.00 in
10:02 73.6 °F 63.7 °F 29.78 in SSE 6.0 mph 12.0 mph 71 % 0.00 in
10:07 73.9 °F 62.8 °F 29.78 in South 5.0 mph 12.0 mph 68 % 0.00 in
10:12 74.3 °F 62.6 °F 29.78 in ESE 8.0 mph 12.0 mph 67 % 0.00 in
10:17 74.3 °F 62.2 °F 29.77 in SE 5.0 mph 13.0 mph 66 % 0.00 in
10:22 74.5 °F 62.8 °F 29.77 in SE 5.0 mph 13.0 mph 67 % 0.00 in
10:27 74.8 °F 63.1 °F 29.77 in SE 3.0 mph 13.0 mph 67 % 0.00 in
10:32 75.4 °F 62.4 °F 29.77 in SE 6.0 mph 12.0 mph 64 % 0.00 in
10:37 75.6 °F 63.0 °F 29.77 in SSE 8.0 mph 11.0 mph 65 % 0.00 in
10:42 75.7 °F 60.8 °F 29.77 in SE 8.0 mph 11.0 mph 60 % 0.00 in
10:47 75.9 °F 61.0 °F 29.76 in SSE 5.0 mph 12.0 mph 60 % 0.00 in
10:52 76.6 °F 60.8 °F 29.76 in SE 3.0 mph 12.0 mph 58 % 0.00 in
10:57 77.2 °F 60.8 °F 29.76 in SSW 7.0 mph 12.0 mph 57 % 0.00 in
10:59 77.4 °F 60.4 °F 29.76 in South 5.0 mph 12.0 mph 56 % 0.00 in
11:04 77.5 °F 61.2 °F 29.75 in SW 5.0 mph 12.0 mph 57 % 0.00 in
11:09 77.7 °F 58.6 °F 29.75 in ESE 14.0 mph 14.0 mph 52 % 0.00 in
11:14 78.1 °F 61.5 °F 29.75 in SSE 6.0 mph 14.0 mph 57 % 0.00 in
11:19 78.3 °F 61.3 °F 29.75 in SSE 9.0 mph 14.0 mph 56 % 0.00 in
11:24 78.6 °F 60.1 °F 29.75 in SE 6.0 mph 14.0 mph 53 % 0.00 in
11:29 78.6 °F 60.6 °F 29.74 in South 6.0 mph 10.0 mph 54 % 0.00 in
11:35 79.2 °F 61.5 °F 29.74 in SSE 6.0 mph 10.0 mph 55 % 0.00 in
11:40 79.3 °F 60.8 °F 29.74 in ESE 7.0 mph 10.0 mph 53 % 0.00 in
11:45 79.2 °F 59.5 °F 29.73 in SSE 7.0 mph 11.0 mph 51 % 0.00 in
11:50 79.3 °F 60.3 °F 29.73 in ESE 7.0 mph 12.0 mph 52 % 0.00 in
11:55 79.7 °F 58.8 °F 29.73 in SE 3.0 mph 12.0 mph 49 % 0.00 in
12:00 80.1 °F 59.7 °F 29.73 in SSW 7.0 mph 12.0 mph 50 % 0.00 in
12:05 80.1 °F 60.3 °F 29.72 in South 6.0 mph 11.0 mph 51 % 0.00 in
12:10 80.1 °F 58.6 °F 29.72 in East 6.0 mph 11.0 mph 48 % 0.00 in
12:15 80.4 °F 60.1 °F 29.71 in SSE 4.0 mph 11.0 mph 50 % 0.00 in
12:20 81.0 °F 60.1 °F 29.71 in SE 6.0 mph 11.0 mph 49 % 0.00 in
12:25 81.0 °F 58.8 °F 29.71 in SSE 4.0 mph 15.0 mph 47 % 0.00 in
12:30 81.1 °F 60.1 °F 29.71 in ESE 6.0 mph 15.0 mph 49 % 0.00 in
12:35 81.1 °F 59.5 °F 29.70 in SE 6.0 mph 15.0 mph 48 % 0.00 in
12:40 81.1 °F 59.5 °F 29.70 in SSE 8.0 mph 15.0 mph 48 % 0.00 in
12:45 81.1 °F 59.5 °F 29.69 in SE 10.0 mph 15.0 mph 48 % 0.00 in
12:50 81.1 °F 58.5 °F 29.69 in SE 10.0 mph 16.0 mph 46 % 0.00 in
12:55 81.5 °F 59.9 °F 29.68 in SW 12.0 mph 16.0 mph 48 % 0.00 in
13:01 81.7 °F 60.1 °F 29.68 in SSW 8.0 mph 16.0 mph 48 % 0.00 in
13:06 81.9 °F 59.0 °F 29.68 in SSW 7.0 mph 16.0 mph 46 % 0.00 in
13:11 82.0 °F 59.2 °F 29.68 in SSW 6.0 mph 17.0 mph 46 % 0.00 in
13:16 82.4 °F 60.1 °F 29.68 in SSE 8.0 mph 17.0 mph 47 % 0.00 in
13:21 82.8 °F 61.0 °F 29.68 in SSW 6.0 mph 14.0 mph 48 % 0.00 in
13:26 82.9 °F 60.1 °F 29.68 in SSW 6.0 mph 13.0 mph 46 % 0.00 in
13:31 82.9 °F 60.1 °F 29.68 in SW 7.0 mph 13.0 mph 46 % 0.00 in
13:36 82.9 °F 59.4 °F 29.67 in South 4.0 mph 13.0 mph 45 % 0.00 in
13:41 83.1 °F 59.5 °F 29.67 in ESE 13.0 mph 13.0 mph 45 % 0.00 in
13:46 83.1 °F 59.5 °F 29.67 in South 5.0 mph 13.0 mph 45 % 0.00 in
13:51 83.3 °F 59.7 °F 29.67 in South 8.0 mph 14.0 mph 45 % 0.00 in
13:56 83.1 °F 58.3 °F 29.66 in SE 4.0 mph 14.0 mph 43 % 0.00 in
14:01 83.3 °F 58.5 °F 29.66 in SSE 10.0 mph 14.0 mph 43 % 0.00 in
14:06 83.5 °F 59.9 °F 29.66 in SSE 8.0 mph 13.0 mph 45 % 0.00 in
14:11 83.7 °F 58.8 °F 29.66 in SE 4.0 mph 13.0 mph 43 % 0.00 in
14:16 83.8 °F 59.5 °F 29.66 in SW 6.0 mph 12.0 mph 44 % 0.00 in
14:21 83.8 °F 59.0 °F 29.66 in SSE 2.0 mph 12.0 mph 43 % 0.00 in
14:26 84.2 °F 59.4 °F 29.65 in SSE 4.0 mph 12.0 mph 43 % 0.00 in
14:31 84.0 °F 59.2 °F 29.65 in SE 4.0 mph 12.0 mph 43 % 0.00 in
14:36 83.8 °F 58.3 °F 29.65 in SE 5.0 mph 13.0 mph 42 % 0.00 in
14:41 84.0 °F 58.5 °F 29.65 in SSE 5.0 mph 13.0 mph 42 % 0.00 in
14:46 84.0 °F 59.2 °F 29.65 in SSW 7.0 mph 13.0 mph 43 % 0.00 in
14:51 83.8 °F 58.3 °F 29.65 in SE 3.0 mph 12.0 mph 42 % 0.00 in
14:56 84.0 °F 59.2 °F 29.65 in South 9.0 mph 12.0 mph 43 % 0.00 in
15:01 83.8 °F 59.0 °F 29.64 in SE 4.0 mph 14.0 mph 43 % 0.00 in
15:06 84.0 °F 58.5 °F 29.64 in South 8.0 mph 14.0 mph 42 % 0.00 in
15:11 84.0 °F 59.2 °F 29.64 in SE 5.0 mph 14.0 mph 43 % 0.00 in
15:16 83.8 °F 57.6 °F 29.64 in South 7.0 mph 16.0 mph 41 % 0.00 in
15:21 83.8 °F 59.5 °F 29.64 in SE 3.0 mph 16.0 mph 44 % 0.00 in
15:26 84.0 °F 59.7 °F 29.64 in SE 5.0 mph 16.0 mph 44 % 0.00 in
15:31 84.0 °F 59.7 °F 29.64 in East 15.0 mph 15.0 mph 44 % 0.00 in
15:36 83.7 °F 59.4 °F 29.64 in ESE 5.0 mph 17.0 mph 44 % 0.00 in
15:42 83.8 °F 59.5 °F 29.64 in East 6.0 mph 17.0 mph 44 % 0.00 in
15:47 83.8 °F 59.5 °F 29.63 in SSE 7.0 mph 17.0 mph 44 % 0.00 in
15:52 83.8 °F 60.3 °F 29.63 in SE 6.0 mph 12.0 mph 45 % 0.00 in
15:57 83.5 °F 60.4 °F 29.63 in ESE 9.0 mph 13.0 mph 46 % 0.00 in
16:02 83.1 °F 60.3 °F 29.63 in South 5.0 mph 14.0 mph 46 % 0.00 in
16:07 82.9 °F 60.1 °F 29.63 in SE 4.0 mph 14.0 mph 46 % 0.00 in
16:12 82.9 °F 60.6 °F 29.63 in SSE 9.0 mph 14.0 mph 47 % 0.00 in
16:17 82.8 °F 61.0 °F 29.63 in South 10.0 mph 14.0 mph 48 % 0.00 in
16:22 82.6 °F 61.0 °F 29.63 in SSE 7.0 mph 14.0 mph 48 % 0.00 in
16:27 82.4 °F 60.8 °F 29.62 in SSE 9.0 mph 15.0 mph 48 % 0.00 in
16:32 82.2 °F 61.2 °F 29.62 in SSE 5.0 mph 15.0 mph 49 % 0.00 in
16:37 82.2 °F 61.2 °F 29.62 in SSE 6.0 mph 15.0 mph 49 % 0.00 in
16:42 82.0 °F 61.0 °F 29.62 in SE 10.0 mph 14.0 mph 49 % 0.00 in
16:47 81.7 °F 61.2 °F 29.63 in SE 7.0 mph 15.0 mph 50 % 0.00 in
16:52 81.3 °F 61.5 °F 29.63 in SE 11.0 mph 15.0 mph 51 % 0.00 in
16:57 81.1 °F 61.3 °F 29.63 in SSE 6.0 mph 15.0 mph 51 % 0.00 in
17:02 81.0 °F 62.2 °F 29.63 in South 10.0 mph 15.0 mph 53 % 0.00 in
17:07 80.6 °F 61.9 °F 29.63 in SSE 6.0 mph 15.0 mph 53 % 0.00 in
17:12 80.1 °F 61.9 °F 29.63 in SSE 5.0 mph 13.0 mph 54 % 0.00 in
17:17 80.1 °F 62.4 °F 29.63 in SE 6.0 mph 13.0 mph 55 % 0.00 in
17:22 79.5 °F 61.9 °F 29.63 in SE 12.0 mph 15.0 mph 55 % 0.00 in
17:27 79.2 °F 62.6 °F 29.63 in ESE 4.0 mph 15.0 mph 57 % 0.00 in
17:32 78.8 °F 62.2 °F 29.63 in SSE 4.0 mph 15.0 mph 57 % 0.00 in
17:37 78.3 °F 62.2 °F 29.63 in East 4.0 mph 13.0 mph 58 % 0.00 in
17:42 78.1 °F 62.6 °F 29.63 in ESE 6.0 mph 14.0 mph 59 % 0.00 in
17:47 77.7 °F 62.2 °F 29.63 in SSE 7.0 mph 14.0 mph 59 % 0.00 in
17:52 77.4 °F 62.4 °F 29.63 in SE 7.0 mph 14.0 mph 60 % 0.00 in
17:57 77.0 °F 62.1 °F 29.63 in East 10.0 mph 14.0 mph 60 % 0.00 in
18:02 76.6 °F 62.2 °F 29.63 in SSE 7.0 mph 14.0 mph 61 % 0.00 in
18:07 76.1 °F 62.1 °F 29.63 in SSE 5.0 mph 14.0 mph 62 % 0.00 in
18:12 75.9 °F 61.9 °F 29.63 in ESE 7.0 mph 14.0 mph 62 % 0.00 in
18:17 75.6 °F 61.7 °F 29.63 in ESE 11.0 mph 12.0 mph 62 % 0.00 in
18:22 75.2 °F 61.7 °F 29.63 in ESE 7.0 mph 13.0 mph 63 % 0.00 in
18:27 74.8 °F 61.3 °F 29.63 in SE 5.0 mph 13.0 mph 63 % 0.00 in
18:32 74.5 °F 61.0 °F 29.63 in ESE 6.0 mph 13.0 mph 63 % 0.00 in
18:37 74.1 °F 61.2 °F 29.63 in SE 6.0 mph 12.0 mph 64 % 0.00 in
18:42 73.9 °F 60.6 °F 29.64 in SSE 13.0 mph 13.0 mph 63 % 0.00 in
18:47 73.6 °F 59.7 °F 29.64 in SE 4.0 mph 13.0 mph 62 % 0.00 in
18:52 73.2 °F 59.4 °F 29.64 in ESE 7.0 mph 13.0 mph 62 % 0.00 in
18:57 73.0 °F 58.8 °F 29.64 in SE 5.0 mph 13.0 mph 61 % 0.00 in
19:02 72.9 °F 58.1 °F 29.64 in SE 7.0 mph 13.0 mph 60 % 0.00 in
19:07 72.7 °F 58.5 °F 29.64 in SE 14.0 mph 14.0 mph 61 % 0.00 in
19:12 72.3 °F 58.1 °F 29.64 in SE 7.0 mph 14.0 mph 61 % 0.00 in
19:17 72.1 °F 57.9 °F 29.64 in SE 8.0 mph 14.0 mph 61 % 0.00 in
19:22 71.8 °F 58.1 °F 29.65 in SSE 8.0 mph 14.0 mph 62 % 0.00 in
19:27 71.6 °F 58.3 °F 29.64 in SE 8.0 mph 14.0 mph 63 % 0.00 in
19:32 71.2 °F 58.5 °F 29.65 in East 5.0 mph 13.0 mph 64 % 0.00 in
19:37 71.1 °F 58.6 °F 29.65 in SE 6.0 mph 13.0 mph 65 % 0.00 in
19:42 70.9 °F 59.4 °F 29.65 in ESE 6.0 mph 13.0 mph 67 % 0.00 in
19:47 70.5 °F 59.4 °F 29.64 in SE 5.0 mph 13.0 mph 68 % 0.00 in
19:52 70.3 °F 59.7 °F 29.65 in ESE 4.0 mph 13.0 mph 69 % 0.00 in
19:57 70.0 °F 59.7 °F 29.65 in SSE 12.0 mph 13.0 mph 70 % 0.00 in
20:03 69.8 °F 60.8 °F 29.65 in SE 7.0 mph 13.0 mph 73 % 0.00 in
20:08 69.4 °F 60.8 °F 29.65 in East 11.0 mph 13.0 mph 74 % 0.00 in
20:13 69.3 °F 61.3 °F 29.65 in SE 10.0 mph 13.0 mph 76 % 0.00 in
20:18 69.1 °F 61.5 °F 29.65 in ESE 3.0 mph 14.0 mph 77 % 0.00 in
20:23 68.9 °F 61.7 °F 29.65 in ESE 7.0 mph 14.0 mph 78 % 0.00 in
20:28 68.7 °F 61.9 °F 29.65 in SE 3.0 mph 14.0 mph 79 % 0.00 in
20:33 68.4 °F 61.9 °F 29.65 in SSE 5.0 mph 12.0 mph 80 % 0.00 in
20:38 68.4 °F 62.2 °F 29.65 in SE 3.0 mph 12.0 mph 81 % 0.00 in
20:43 68.2 °F 62.4 °F 29.65 in SE 3.0 mph 11.0 mph 82 % 0.00 in
20:48 68.0 °F 62.6 °F 29.66 in SSE 2.0 mph 11.0 mph 83 % 0.00 in
20:53 67.8 °F 62.4 °F 29.66 in SSW 2.0 mph 11.0 mph 83 % 0.00 in
20:58 67.6 °F 62.6 °F 29.66 in SSE 3.0 mph 9.0 mph 84 % 0.00 in
21:03 67.5 °F 62.4 °F 29.66 in SE 4.0 mph 8.0 mph 84 % 0.00 in
21:08 67.5 °F 62.8 °F 29.66 in SSE 5.0 mph 8.0 mph 85 % 0.00 in
21:13 67.3 °F 62.6 °F 29.66 in SE 3.0 mph 8.0 mph 85 % 0.00 in
21:18 67.3 °F 62.6 °F 29.66 in SE 2.0 mph 8.0 mph 85 % 0.00 in
21:23 67.1 °F 62.8 °F 29.66 in SE 2.0 mph 7.0 mph 86 % 0.00 in
21:28 66.9 °F 62.6 °F 29.66 in ESE 2.0 mph 8.0 mph 86 % 0.00 in
21:33 66.9 °F 63.0 °F 29.67 in SSE 3.0 mph 8.0 mph 87 % 0.00 in
21:38 66.7 °F 62.8 °F 29.67 in SE 4.0 mph 8.0 mph 87 % 0.00 in
21:43 66.6 °F 62.6 °F 29.67 in SE 3.0 mph 7.0 mph 87 % 0.00 in
21:48 66.6 °F 63.0 °F 29.67 in ESE 2.0 mph 6.0 mph 88 % 0.00 in
21:53 66.4 °F 62.8 °F 29.67 in SSE 2.0 mph 7.0 mph 88 % 0.00 in
21:58 66.4 °F 62.8 °F 29.67 in ESE 3.0 mph 7.0 mph 88 % 0.00 in
22:04 66.2 °F 62.8 °F 29.67 in East 4.0 mph 7.0 mph 89 % 0.00 in
22:09 66.0 °F 62.6 °F 29.67 in ESE 2.0 mph 6.0 mph 89 % 0.00 in
22:14 65.8 °F 62.4 °F 29.67 in ESE 3.0 mph 6.0 mph 89 % 0.00 in
22:19 65.8 °F 62.8 °F 29.67 in SE 4.0 mph 6.0 mph 90 % 0.00 in
22:24 65.8 °F 63.1 °F 29.66 in ESE 5.0 mph 8.0 mph 91 % 0.00 in
22:29 65.8 °F 63.1 °F 29.66 in East 4.0 mph 8.0 mph 91 % 0.00 in
22:34 65.8 °F 63.1 °F 29.66 in SE 6.0 mph 8.0 mph 91 % 0.00 in
22:39 65.8 °F 63.1 °F 29.66 in SE 4.0 mph 7.0 mph 91 % 0.00 in
22:44 65.8 °F 63.1 °F 29.66 in ESE 3.0 mph 10.0 mph 91 % 0.00 in
22:49 65.7 °F 63.0 °F 29.66 in SE 5.0 mph 10.0 mph 91 % 0.00 in
22:54 65.8 °F 63.1 °F 29.66 in SE 3.0 mph 10.0 mph 91 % 0.00 in
22:59 65.8 °F 63.1 °F 29.66 in SSE 5.0 mph 9.0 mph 91 % 0.00 in
23:04 65.8 °F 63.1 °F 29.66 in SSE 9.0 mph 10.0 mph 91 % 0.00 in
23:09 65.7 °F 63.0 °F 29.66 in SSE 6.0 mph 10.0 mph 91 % 0.00 in
23:14 65.7 °F 63.3 °F 29.66 in ESE 6.0 mph 10.0 mph 92 % 0.00 in
23:19 65.7 °F 63.3 °F 29.66 in SSE 4.0 mph 10.0 mph 92 % 0.00 in
23:24 65.8 °F 63.5 °F 29.65 in ESE 6.0 mph 10.0 mph 92 % 0.00 in
23:29 65.8 °F 63.5 °F 29.65 in SE 9.0 mph 10.0 mph 92 % 0.00 in
23:34 65.8 °F 63.5 °F 29.65 in ESE 6.0 mph 10.0 mph 92 % 0.00 in
23:39 65.7 °F 63.3 °F 29.65 in SSE 4.0 mph 10.0 mph 92 % 0.00 in
23:44 65.7 °F 63.5 °F 29.65 in SSE 4.0 mph 10.0 mph 93 % 0.00 in
23:50 65.7 °F 63.5 °F 29.65 in SSE 7.0 mph 9.0 mph 93 % 0.00 in
23:55 65.7 °F 63.5 °F 29.65 in SE 3.0 mph 9.0 mph 93 % 0.00 in
Spring, Texas: Villages of Bridgestone
Compliments of Weather Underground - 2.75 mb

Script developed by  Jim McMurry - jmcmurry@mwt.net Adapted for the template by  Wim van der Kuil - Leuven-Template.eu

You find our weather info also at:

UK Metoffice

WeatherCloud

Weather Underground

Mid-South Weather Network

AWEKAS

Citizen Weather Observer Program (CWOP)

HAMweather, WeatherForYou, PWS Weather

Equipment we use:

Weather-station
Davis Vantage Vue

Weather-program
Meteohub

Weather-server
Debian 7.9 x86 (Guest)

Provider
DreamHost

Davis Vantage Vue

Meteohub

Debian 7.9 x86 (Guest)

DreamHost